Time;durP1;ratioP1;P1;durP2;ratioP2;P2;SDS_P1;SDS_P2;PMS_P1;PMS_P2;Temp;Humidity;BMP_temperature;BMP_pressure;BME280_temperature;BME280_humidity;BME280_pressure;Samples;Min_cycle;Max_cycle;Signal;HPM_P1;HPM_P2
2022/01/29 00:00:40;;;;;;;;;;;19.40;56.90;;;;;;5051129;28;1656;-68
2022/01/29 00:03:05;;;;;;;;;;;19.40;56.90;;;;;;5051988;28;1176;-66
2022/01/29 00:05:30;;;;;;;;;;;19.40;56.90;;;;;;5052211;28;1410;-68
2022/01/29 00:07:56;;;;;;;;;;;19.40;57.00;;;;;;5051576;28;1068;-68
2022/01/29 00:10:21;;;;;;;;;;;19.40;57.00;;;;;;5051285;28;1348;-68
2022/01/29 00:12:47;;;;;;;;;;;19.30;57.00;;;;;;5052515;28;1073;-68
2022/01/29 00:15:12;;;;;;;;;;;19.30;57.00;;;;;;5050817;28;1957;-67
2022/01/29 00:17:38;;;;;;;;;;;19.30;57.00;;;;;;5052039;28;1093;-68
2022/01/29 00:20:05;;;;;;;;;;;19.30;57.00;;;;;;5045651;28;1305;-67
2022/01/29 00:22:30;;;;;;;;;;;19.30;57.00;;;;;;5048157;28;1643;-67
2022/01/29 00:24:57;;;;;;;;;;;19.30;57.00;;;;;;5052310;28;1366;-67
2022/01/29 00:27:24;;;;;;;;;;;19.30;57.00;;;;;;5050198;28;1627;-67
2022/01/29 00:29:50;;;;;;;;;;;19.30;57.00;;;;;;5040273;28;1506;-68
2022/01/29 00:32:15;;;;;;;;;;;19.30;57.10;;;;;;5049948;28;1736;-68
2022/01/29 00:34:41;;;;;;;;;;;19.30;57.10;;;;;;5051972;28;1955;-67
2022/01/29 00:37:06;;;;;;;;;;;19.30;57.10;;;;;;5051189;28;1642;-67
2022/01/29 00:39:32;;;;;;;;;;;19.30;57.10;;;;;;5053771;28;1613;-67
2022/01/29 00:41:57;;;;;;;;;;;19.30;57.70;;;;;;5055691;28;1165;-67
2022/01/29 00:44:23;;;;;;;;;;;19.30;57.10;;;;;;5055723;28;1259;-67
2022/01/29 00:46:48;;;;;;;;;;;19.30;57.10;;;;;;5055572;28;1297;-67
2022/01/29 00:49:14;;;;;;;;;;;19.30;57.10;;;;;;5053539;28;1356;-67
2022/01/29 00:51:39;;;;;;;;;;;19.30;57.10;;;;;;5055625;28;1476;-67
2022/01/29 00:54:05;;;;;;;;;;;19.30;57.10;;;;;;5055810;28;1359;-68
2022/01/29 00:56:30;;;;;;;;;;;19.30;57.10;;;;;;5055306;28;1902;-68
2022/01/29 00:58:55;;;;;;;;;;;19.30;57.10;;;;;;5053295;28;1369;-68
2022/01/29 01:01:21;;;;;;;;;;;19.30;57.10;;;;;;5054825;28;1376;-66
2022/01/29 01:03:46;;;;;;;;;;;19.30;57.00;;;;;;5055613;28;1365;-66
2022/01/29 01:06:12;;;;;;;;;;;19.30;57.00;;;;;;5054198;28;1658;-66
2022/01/29 01:08:37;;;;;;;;;;;19.30;57.00;;;;;;5045859;28;1422;-66
2022/01/29 01:11:04;;;;;;;;;;;19.30;57.00;;;;;;5055043;28;1407;-66
2022/01/29 01:13:32;;;;;;;;;;;19.30;57.00;;;;;;5054969;28;1578;-66
2022/01/29 01:15:57;;;;;;;;;;;19.30;57.00;;;;;;5054944;28;1898;-66
2022/01/29 01:18:23;;;;;;;;;;;19.30;57.00;;;;;;5054102;28;1687;-67
2022/01/29 01:20:48;;;;;;;;;;;19.30;57.00;;;;;;5054810;28;1597;-68
2022/01/29 01:23:14;;;;;;;;;;;19.30;57.00;;;;;;5053690;28;1640;-68
2022/01/29 01:25:39;;;;;;;;;;;19.40;57.10;;;;;;5054909;28;1667;-67
2022/01/29 01:28:04;;;;;;;;;;;19.30;57.00;;;;;;5047819;28;1296;-67
2022/01/29 01:30:30;;;;;;;;;;;19.40;57.10;;;;;;5040314;28;1526;-67
2022/01/29 01:32:55;;;;;;;;;;;19.30;57.00;;;;;;5054533;28;1407;-67
2022/01/29 01:35:29;;;;;;;;;;;19.40;57.00;;;;;;5054518;28;1906;-67
2022/01/29 01:38:07;;;;;;;;;;;19.30;57.00;;;;;;5054215;28;1396;-67
2022/01/29 01:40:33;;;;;;;;;;;19.30;57.00;;;;;;5053465;28;1441;-69
2022/01/29 01:43:00;;;;;;;;;;;19.30;57.00;;;;;;5055016;28;1400;-69
2022/01/29 01:45:29;;;;;;;;;;;19.30;57.00;;;;;;5055338;28;1591;-69
2022/01/29 01:47:54;;;;;;;;;;;19.30;57.00;;;;;;5051537;28;1387;-68
2022/01/29 01:50:21;;;;;;;;;;;19.30;57.00;;;;;;5052776;28;1717;-69
2022/01/29 01:52:47;;;;;;;;;;;19.30;57.00;;;;;;5054573;28;1657;-68
2022/01/29 01:55:13;;;;;;;;;;;19.30;57.00;;;;;;5053145;28;1902;-69
2022/01/29 01:57:38;;;;;;;;;;;19.30;57.00;;;;;;5052463;28;1623;-69
2022/01/29 02:00:04;;;;;;;;;;;19.30;57.00;;;;;;5053744;28;1698;-69
2022/01/29 02:02:29;;;;;;;;;;;19.30;57.10;;;;;;5052538;28;1679;-69
2022/01/29 02:04:55;;;;;;;;;;;19.30;57.10;;;;;;5054376;28;1681;-69
2022/01/29 02:07:20;;;;;;;;;;;19.30;57.10;;;;;;5053664;28;1661;-69
2022/01/29 02:09:46;;;;;;;;;;;19.30;57.10;;;;;;5053987;28;1439;-67
2022/01/29 02:12:12;;;;;;;;;;;19.30;57.10;;;;;;5053561;28;1384;-67
2022/01/29 02:14:39;;;;;;;;;;;19.30;57.20;;;;;;5053988;28;1890;-67
2022/01/29 02:17:04;;;;;;;;;;;19.30;57.20;;;;;;5053547;28;1665;-67
2022/01/29 02:19:30;;;;;;;;;;;19.30;57.20;;;;;;5053045;28;1598;-67
2022/01/29 02:21:56;;;;;;;;;;;19.30;57.20;;;;;;5050709;28;1443;-67
2022/01/29 02:24:21;;;;;;;;;;;19.20;57.20;;;;;;5053774;28;1411;-68
2022/01/29 02:26:46;;;;;;;;;;;19.20;57.30;;;;;;5053873;28;1610;-68
2022/01/29 02:29:13;;;;;;;;;;;19.30;57.90;;;;;;5046817;28;1632;-68
2022/01/29 02:31:53;;;;;;;;;;;19.30;57.30;;;;;;5045645;28;1586;-68
2022/01/29 02:34:18;;;;;;;;;;;19.30;57.30;;;;;;5053102;28;1906;-68
2022/01/29 02:36:44;;;;;;;;;;;19.30;57.30;;;;;;5053600;28;1705;-68
2022/01/29 02:39:10;;;;;;;;;;;19.30;57.30;;;;;;5051598;28;1602;-68
2022/01/29 02:41:38;;;;;;;;;;;19.30;57.30;;;;;;5053225;28;1450;-68
2022/01/29 02:44:05;;;;;;;;;;;19.30;57.30;;;;;;5053228;28;1593;-68
2022/01/29 02:46:48;;;;;;;;;;;19.30;57.20;;;;;;5053411;28;1658;-68
2022/01/29 02:49:14;;;;;;;;;;;19.30;57.20;;;;;;5053218;28;1354;-68
2022/01/29 02:51:42;;;;;;;;;;;19.30;57.20;;;;;;5051953;28;1734;-68
2022/01/29 02:54:08;;;;;;;;;;;19.30;57.10;;;;;;5052152;28;1620;-68
2022/01/29 02:56:33;;;;;;;;;;;19.30;57.10;;;;;;5053175;28;1961;-68
2022/01/29 02:58:59;;;;;;;;;;;19.30;57.00;;;;;;5052305;28;1812;-68
2022/01/29 03:01:24;;;;;;;;;;;19.40;57.10;;;;;;5050474;28;1644;-68
2022/01/29 03:03:49;;;;;;;;;;;19.40;57.00;;;;;;5051339;28;1323;-68
2022/01/29 03:06:15;;;;;;;;;;;19.40;56.90;;;;;;5052927;28;1669;-68
2022/01/29 03:08:40;;;;;;;;;;;19.50;56.90;;;;;;5052475;28;1470;-68
2022/01/29 03:11:06;;;;;;;;;;;19.40;56.80;;;;;;5052442;28;1431;-68
2022/01/29 03:13:31;;;;;;;;;;;19.50;56.80;;;;;;5052930;28;1621;-68
2022/01/29 03:15:57;;;;;;;;;;;19.50;56.70;;;;;;5052777;28;1886;-68
2022/01/29 03:18:22;;;;;;;;;;;19.50;56.70;;;;;;5052193;28;1603;-68
2022/01/29 03:20:47;;;;;;;;;;;19.50;56.70;;;;;;5052059;28;1621;-68
2022/01/29 03:23:13;;;;;;;;;;;19.50;56.60;;;;;;5052530;28;1657;-68
2022/01/29 03:25:39;;;;;;;;;;;19.50;56.50;;;;;;5048822;28;1699;-67
2022/01/29 03:28:04;;;;;;;;;;;19.50;56.50;;;;;;5041686;28;1397;-67
2022/01/29 03:30:30;;;;;;;;;;;19.50;56.50;;;;;;5042942;28;1442;-67
2022/01/29 03:32:55;;;;;;;;;;;19.60;56.50;;;;;;5043701;28;1352;-67
2022/01/29 03:35:20;;;;;;;;;;;19.60;56.50;;;;;;5043133;28;1918;-67
2022/01/29 03:37:46;;;;;;;;;;;19.60;56.50;;;;;;5042030;28;1328;-67
2022/01/29 03:40:11;;;;;;;;;;;19.50;56.50;;;;;;5043652;28;1412;-67
2022/01/29 03:42:45;;;;;;;;;;;19.60;56.50;;;;;;5042705;28;1311;-68
2022/01/29 03:45:13;;;;;;;;;;;19.60;56.50;;;;;;5046147;28;1363;-67
2022/01/29 03:47:39;;;;;;;;;;;19.60;56.50;;;;;;5041497;28;1108;-67
2022/01/29 03:50:04;;;;;;;;;;;19.60;56.50;;;;;;5043564;28;1412;-66
2022/01/29 03:52:30;;;;;;;;;;;19.60;56.50;;;;;;5043516;28;1397;-67
2022/01/29 03:54:55;;;;;;;;;;;19.60;56.40;;;;;;5043584;28;1944;-66
2022/01/29 03:57:21;;;;;;;;;;;19.60;56.50;;;;;;5043958;28;1380;-68
2022/01/29 03:59:46;;;;;;;;;;;19.60;56.40;;;;;;5052017;28;1561;-69
2022/01/29 04:02:12;;;;;;;;;;;19.60;57.00;;;;;;5052003;28;1404;-68
2022/01/29 04:04:37;;;;;;;;;;;19.60;56.40;;;;;;5052296;28;1398;-68
2022/01/29 04:07:09;;;;;;;;;;;19.60;56.40;;;;;;5052245;28;1294;-68
2022/01/29 04:09:35;;;;;;;;;;;19.60;56.40;;;;;;5051850;28;1840;-69
2022/01/29 04:12:00;;;;;;;;;;;19.60;56.40;;;;;;5053101;28;1294;-69
2022/01/29 04:14:32;;;;;;;;;;;19.60;56.40;;;;;;5056157;28;1898;-69
2022/01/29 04:16:57;;;;;;;;;;;19.60;56.40;;;;;;5056494;28;1059;-68
2022/01/29 04:19:26;;;;;;;;;;;19.60;56.40;;;;;;5055656;28;1281;-68
2022/01/29 04:21:51;;;;;;;;;;;19.60;56.40;;;;;;5055864;28;1404;-68
2022/01/29 04:24:16;;;;;;;;;;;19.60;56.40;;;;;;5056035;28;1126;-68
2022/01/29 04:26:44;;;;;;;;;;;19.60;56.40;;;;;;5056063;28;1119;-68
2022/01/29 04:29:09;;;;;;;;;;;19.60;56.40;;;;;;5055521;28;1287;-68
2022/01/29 04:34:18;;;;;;;;;;;19.60;56.30;;;;;;5056369;28;1981;-68
2022/01/29 04:36:44;;;;;;;;;;;19.60;56.40;;;;;;5055800;28;1126;-68
2022/01/29 04:39:09;;;;;;;;;;;19.60;56.40;;;;;;5055678;28;1263;-68
2022/01/29 04:41:35;;;;;;;;;;;19.60;56.40;;;;;;5055498;28;1281;-68
2022/01/29 04:44:00;;;;;;;;;;;19.60;56.30;;;;;;5056059;28;1075;-68
2022/01/29 04:46:26;;;;;;;;;;;19.60;56.40;;;;;;5056518;28;1071;-68
2022/01/29 04:48:53;;;;;;;;;;;19.60;56.30;;;;;;5055607;28;1270;-68
2022/01/29 04:51:19;;;;;;;;;;;19.60;56.30;;;;;;5045419;28;1817;-68
2022/01/29 04:53:44;;;;;;;;;;;19.60;56.30;;;;;;5038803;28;1081;-67
2022/01/29 04:56:09;;;;;;;;;;;19.60;56.30;;;;;;5053241;28;1910;-67
2022/01/29 04:58:35;;;;;;;;;;;19.60;56.30;;;;;;5052597;28;1282;-68
2022/01/29 05:01:00;;;;;;;;;;;19.60;56.30;;;;;;5054097;28;1286;-67
2022/01/29 05:03:26;;;;;;;;;;;19.60;56.20;;;;;;5054476;28;1275;-67
2022/01/29 05:05:51;;;;;;;;;;;19.60;56.20;;;;;;5053079;28;1288;-67
2022/01/29 05:08:17;;;;;;;;;;;19.60;56.20;;;;;;5054206;28;1210;-67
2022/01/29 05:10:43;;;;;;;;;;;19.70;56.30;;;;;;5054709;28;1229;-67
2022/01/29 05:13:12;;;;;;;;;;;19.70;56.30;;;;;;5053861;28;1377;-67
2022/01/29 05:15:45;;;;;;;;;;;19.70;56.30;;;;;;5055006;28;1878;-67
2022/01/29 05:29:07;;;;;;;;;;;19.70;56.30;;;;;;5053165;28;1395;-67
2022/01/29 05:31:33;;;;;;;;;;;19.70;56.30;;;;;;5053855;28;996;-68
2022/01/29 05:33:59;;;;;;;;;;;19.70;56.30;;;;;;5053511;28;1078;-68
2022/01/29 05:36:24;;;;;;;;;;;19.70;56.30;;;;;;5052393;28;1975;-68
2022/01/29 05:38:50;;;;;;;;;;;19.70;56.30;;;;;;5053308;28;1341;-69
2022/01/29 05:41:15;;;;;;;;;;;19.70;56.30;;;;;;5053570;28;1333;-69
2022/01/29 05:43:43;;;;;;;;;;;19.70;56.30;;;;;;5053304;28;1301;-68
2022/01/29 05:46:11;;;;;;;;;;;19.60;56.20;;;;;;5053045;28;1093;-67
2022/01/29 05:48:37;;;;;;;;;;;19.70;56.30;;;;;;5052744;28;1251;-68
2022/01/29 05:51:02;;;;;;;;;;;19.70;56.30;;;;;;5053232;28;1325;-69
2022/01/29 05:53:28;;;;;;;;;;;19.70;56.30;;;;;;5053283;28;1106;-69
2022/01/29 05:55:53;;;;;;;;;;;19.70;56.20;;;;;;5053342;28;1894;-69
2022/01/29 05:58:19;;;;;;;;;;;19.70;56.30;;;;;;5052976;28;1301;-69
2022/01/29 06:00:44;;;;;;;;;;;19.70;56.20;;;;;;5053269;28;1375;-69
2022/01/29 06:03:10;;;;;;;;;;;19.70;56.20;;;;;;5052788;28;1391;-69
2022/01/29 06:05:35;;;;;;;;;;;19.70;56.30;;;;;;5054101;28;1266;-68
2022/01/29 06:08:01;;;;;;;;;;;19.70;56.20;;;;;;5052463;28;1305;-69
2022/01/29 06:10:26;;;;;;;;;;;19.70;56.20;;;;;;5052882;28;1332;-68
2022/01/29 06:13:01;;;;;;;;;;;19.60;56.20;;;;;;5051868;28;1347;-69
2022/01/29 06:15:26;;;;;;;;;;;19.70;56.30;;;;;;5053267;28;1961;-69
2022/01/29 06:17:52;;;;;;;;;;;19.60;56.20;;;;;;5052037;28;964;-69
2022/01/29 06:20:17;;;;;;;;;;;19.60;56.30;;;;;;5052700;28;1245;-69
2022/01/29 06:22:43;;;;;;;;;;;19.60;56.30;;;;;;5053519;28;1107;-69
2022/01/29 06:25:08;;;;;;;;;;;19.60;56.20;;;;;;5052345;28;2125;-69
2022/01/29 06:27:33;;;;;;;;;;;19.70;56.30;;;;;;5053581;28;1065;-69
2022/01/29 06:29:59;;;;;;;;;;;19.60;56.30;;;;;;5053574;28;1369;-69
2022/01/29 06:32:24;;;;;;;;;;;19.60;56.30;;;;;;5053454;28;1361;-69
2022/01/29 06:34:50;;;;;;;;;;;19.60;56.20;;;;;;5052892;28;1926;-68
2022/01/29 06:37:15;;;;;;;;;;;19.60;56.20;;;;;;5052356;28;1313;-67
2022/01/29 06:39:41;;;;;;;;;;;19.60;56.20;;;;;;5052839;28;1272;-69
2022/01/29 06:42:06;;;;;;;;;;;19.60;56.30;;;;;;5054010;28;1330;-69
2022/01/29 06:44:31;;;;;;;;;;;19.60;56.20;;;;;;5052960;28;1367;-69
2022/01/29 06:46:57;;;;;;;;;;;19.70;56.30;;;;;;5052640;28;1071;-68
2022/01/29 06:49:22;;;;;;;;;;;19.60;56.20;;;;;;5051808;28;1395;-68
2022/01/29 06:51:48;;;;;;;;;;;19.70;56.30;;;;;;5052591;28;1321;-68
2022/01/29 06:54:13;;;;;;;;;;;19.70;56.30;;;;;;5053158;28;1403;-68
2022/01/29 06:56:39;;;;;;;;;;;19.60;56.20;;;;;;5053400;28;1963;-66
2022/01/29 06:59:04;;;;;;;;;;;19.70;56.30;;;;;;5053300;28;1340;-66
2022/01/29 07:01:30;;;;;;;;;;;19.60;56.20;;;;;;5051479;28;1011;-66
2022/01/29 07:03:55;;;;;;;;;;;19.60;56.20;;;;;;5052983;28;1086;-66
2022/01/29 07:06:20;;;;;;;;;;;19.70;56.30;;;;;;5053156;28;1071;-66
2022/01/29 07:08:46;;;;;;;;;;;19.60;56.30;;;;;;5052873;28;1213;-66
2022/01/29 07:11:11;;;;;;;;;;;19.60;56.20;;;;;;5052960;28;1261;-66
2022/01/29 07:13:37;;;;;;;;;;;19.70;56.30;;;;;;5053123;28;1278;-66
2022/01/29 07:16:02;;;;;;;;;;;19.70;56.30;;;;;;5052505;28;1965;-66
2022/01/29 07:18:28;;;;;;;;;;;19.70;56.30;;;;;;5052111;28;1348;-66
2022/01/29 07:20:53;;;;;;;;;;;19.70;56.20;;;;;;5052770;28;1306;-66
2022/01/29 07:23:19;;;;;;;;;;;19.70;56.20;;;;;;5052928;28;1067;-66
2022/01/29 07:25:44;;;;;;;;;;;19.70;56.50;;;;;;5052690;28;1311;-66
2022/01/29 07:28:09;;;;;;;;;;;19.70;56.60;;;;;;5052194;28;1076;-66
2022/01/29 07:30:35;;;;;;;;;;;19.80;56.50;;;;;;5052070;28;1240;-66
2022/01/29 07:33:00;;;;;;;;;;;19.70;56.40;;;;;;5052809;28;1303;-66
2022/01/29 07:35:26;;;;;;;;;;;19.70;56.40;;;;;;5052072;28;1942;-66
2022/01/29 07:37:51;;;;;;;;;;;19.80;56.50;;;;;;5046940;28;1085;-66
2022/01/29 07:40:17;;;;;;;;;;;19.80;56.40;;;;;;5038477;28;1357;-66
2022/01/29 07:42:42;;;;;;;;;;;19.90;56.30;;;;;;5048472;28;1150;-66
2022/01/29 07:45:08;;;;;;;;;;;20.00;56.20;;;;;;5049601;28;1252;-66
2022/01/29 07:47:33;;;;;;;;;;;20.00;56.00;;;;;;5051814;28;1375;-66
2022/01/29 07:49:59;;;;;;;;;;;20.20;55.90;;;;;;5051406;28;1274;-66
2022/01/29 07:52:24;;;;;;;;;;;20.30;55.70;;;;;;5049998;28;1177;-65
2022/01/29 07:54:49;;;;;;;;;;;20.40;55.50;;;;;;5052069;28;1898;-66
2022/01/29 07:57:15;;;;;;;;;;;20.50;55.20;;;;;;5051715;28;1308;-66
2022/01/29 07:59:40;;;;;;;;;;;20.60;55.00;;;;;;5051967;28;1337;-66
2022/01/29 08:02:06;;;;;;;;;;;20.60;54.70;;;;;;5050692;28;1875;-66
2022/01/29 08:04:31;;;;;;;;;;;20.70;54.50;;;;;;5048791;28;933;-66
2022/01/29 08:06:57;;;;;;;;;;;20.80;54.30;;;;;;5044103;28;1269;-66
2022/01/29 08:09:22;;;;;;;;;;;20.90;54.20;;;;;;5049227;28;1348;-66
2022/01/29 08:11:47;;;;;;;;;;;21.00;54.00;;;;;;5052111;28;1015;-66
2022/01/29 08:14:13;;;;;;;;;;;21.00;53.80;;;;;;5050813;28;1007;-66
2022/01/29 08:16:39;;;;;;;;;;;21.10;53.80;;;;;;5044728;28;1953;-66
2022/01/29 08:19:04;;;;;;;;;;;21.10;53.60;;;;;;5051268;28;1326;-66
2022/01/29 08:21:30;;;;;;;;;;;21.10;53.50;;;;;;5051871;28;1387;-66
2022/01/29 08:23:55;;;;;;;;;;;21.20;54.00;;;;;;5052107;28;1215;-66
2022/01/29 08:26:20;;;;;;;;;;;21.20;53.40;;;;;;5052185;28;1274;-66
2022/01/29 08:28:46;;;;;;;;;;;21.20;53.30;;;;;;5050271;28;1359;-66
2022/01/29 08:31:11;;;;;;;;;;;21.30;53.30;;;;;;5051471;28;1309;-66
2022/01/29 08:33:37;;;;;;;;;;;21.30;53.20;;;;;;5051805;28;1323;-66
2022/01/29 08:36:03;;;;;;;;;;;21.30;53.20;;;;;;5052554;28;1898;-66
2022/01/29 08:38:29;;;;;;;;;;;21.30;53.10;;;;;;5051528;28;1288;-66
2022/01/29 08:40:54;;;;;;;;;;;21.40;53.20;;;;;;5050720;28;1369;-66
2022/01/29 08:43:20;;;;;;;;;;;21.40;53.10;;;;;;5051977;28;1340;-66
2022/01/29 08:45:46;;;;;;;;;;;21.40;53.10;;;;;;5050439;28;1305;-66
2022/01/29 08:48:11;;;;;;;;;;;21.40;53.10;;;;;;5051866;28;1058;-66
2022/01/29 08:50:36;;;;;;;;;;;21.40;53.00;;;;;;5052076;28;1272;-66
2022/01/29 08:53:02;;;;;;;;;;;21.50;53.00;;;;;;5051849;28;1313;-66
2022/01/29 08:55:27;;;;;;;;;;;21.50;53.00;;;;;;5051985;28;1988;-66
2022/01/29 08:57:53;;;;;;;;;;;21.50;53.10;;;;;;5051089;28;1254;-66
2022/01/29 09:00:19;;;;;;;;;;;21.50;53.00;;;;;;5052803;28;1224;-66
2022/01/29 09:02:44;;;;;;;;;;;21.50;53.00;;;;;;5053949;28;1297;-66
2022/01/29 09:05:10;;;;;;;;;;;21.50;53.00;;;;;;5053510;28;1258;-66
2022/01/29 09:07:36;;;;;;;;;;;21.50;53.00;;;;;;5055153;28;1324;-66
2022/01/29 09:10:01;;;;;;;;;;;21.50;53.00;;;;;;5053772;28;1321;-66
2022/01/29 09:12:26;;;;;;;;;;;21.50;53.00;;;;;;5054862;28;1114;-66
2022/01/29 09:14:52;;;;;;;;;;;21.50;53.00;;;;;;5055031;28;1949;-66
2022/01/29 09:17:17;;;;;;;;;;;21.60;53.10;;;;;;5054194;28;1340;-66
2022/01/29 09:19:44;;;;;;;;;;;21.60;53.10;;;;;;5055166;28;1269;-66
2022/01/29 09:22:09;;;;;;;;;;;21.60;53.10;;;;;;5054574;28;1277;-66
2022/01/29 09:24:35;;;;;;;;;;;21.60;53.20;;;;;;5055201;28;1287;-66
2022/01/29 09:27:00;;;;;;;;;;;21.50;53.10;;;;;;5054459;28;1429;-66
2022/01/29 09:29:26;;;;;;;;;;;21.50;53.10;;;;;;5053998;28;1228;-66
2022/01/29 09:31:51;;;;;;;;;;;21.50;53.70;;;;;;5053764;28;1419;-66
2022/01/29 09:34:16;;;;;;;;;;;21.50;53.10;;;;;;5054977;28;1452;-66
2022/01/29 09:36:42;;;;;;;;;;;21.50;53.10;;;;;;5054613;28;1910;-66
2022/01/29 09:39:07;;;;;;;;;;;21.50;53.00;;;;;;5053844;28;1349;-66
2022/01/29 09:41:33;;;;;;;;;;;21.60;53.10;;;;;;5054759;28;1336;-66
2022/01/29 09:43:58;;;;;;;;;;;21.50;53.10;;;;;;5053739;28;1400;-66
2022/01/29 09:46:27;;;;;;;;;;;21.50;53.10;;;;;;5054572;28;1470;-66
2022/01/29 09:48:53;;;;;;;;;;;21.50;53.10;;;;;;5054146;28;1283;-66
2022/01/29 09:51:18;;;;;;;;;;;21.50;53.10;;;;;;5054031;28;1353;-66
2022/01/29 09:53:44;;;;;;;;;;;21.50;53.10;;;;;;5054366;28;1381;-66
2022/01/29 09:56:10;;;;;;;;;;;21.50;53.20;;;;;;5054364;28;1910;-66
2022/01/29 09:58:36;;;;;;;;;;;21.50;53.20;;;;;;5056545;28;1365;-66
2022/01/29 10:01:01;;;;;;;;;;;21.40;53.20;;;;;;5052577;28;1369;-66
2022/01/29 10:03:27;;;;;;;;;;;21.40;53.30;;;;;;5052951;28;1281;-66
2022/01/29 10:05:52;;;;;;;;;;;21.40;53.30;;;;;;5054260;28;1313;-66
2022/01/29 10:08:18;;;;;;;;;;;21.30;53.30;;;;;;5033300;28;1851;-66
2022/01/29 10:10:44;;;;;;;;;;;21.30;53.40;;;;;;5045671;28;1416;-66
2022/01/29 10:13:26;;;;;;;;;;;21.30;53.50;;;;;;5053413;28;1330;-66
2022/01/29 10:15:52;;;;;;;;;;;21.30;54.20;;;;;;5054063;28;1947;-66
2022/01/29 10:18:21;;;;;;;;;;;21.30;53.60;;;;;;5052364;28;1321;-66
2022/01/29 10:20:46;;;;;;;;;;;21.20;53.60;;;;;;5083731;22;3821;-70
2022/01/29 10:23:12;;;;;;;;;;;21.20;53.70;;;;;;5071117;28;1224;-71
2022/01/29 10:25:41;;;;;;;;;;;21.20;53.80;;;;;;5073683;28;1441;-70
2022/01/29 10:28:11;;;;;;;;;;;21.20;53.80;;;;;;5073696;28;1066;-71
2022/01/29 10:30:37;;;;;;;;;;;21.10;53.90;;;;;;5060170;28;1340;-70
2022/01/29 10:33:17;;;;;;;;;;;21.10;53.90;;;;;;5053003;28;1958;-73
2022/01/29 10:35:43;;;;;;;;;;;21.10;54.00;;;;;;5071855;28;1914;-73
2022/01/29 10:38:08;;;;;;;;;;;21.10;54.00;;;;;;5070130;28;1319;-73
2022/01/29 10:40:34;;;;;;;;;;;21.10;54.10;;;;;;5072991;28;1266;-71
2022/01/29 10:43:03;;;;;;;;;;;21.10;54.10;;;;;;5072159;28;1162;-73
2022/01/29 10:45:35;;;;;;;;;;;21.00;54.10;;;;;;5072508;28;1522;-70
2022/01/29 10:48:01;;;;;;;;;;;21.00;54.20;;;;;;5054948;28;1164;-73
2022/01/29 10:50:26;;;;;;;;;;;21.00;54.20;;;;;;5072345;28;1314;-72
2022/01/29 10:52:52;;;;;;;;;;;21.00;54.30;;;;;;5072026;28;1376;-73
2022/01/29 10:55:17;;;;;;;;;;;21.00;54.30;;;;;;5073448;28;1933;-73
2022/01/29 10:57:43;;;;;;;;;;;21.00;54.30;;;;;;5069177;28;1980;-73
2022/01/29 11:00:16;;;;;;;;;;;20.90;54.30;;;;;;5071589;28;1471;-73
2022/01/29 11:02:42;;;;;;;;;;;20.90;54.40;;;;;;5071272;28;1540;-73
2022/01/29 11:05:08;;;;;;;;;;;20.90;54.40;;;;;;5071596;28;1960;-71
2022/01/29 11:07:33;;;;;;;;;;;20.90;54.40;;;;;;5071516;28;1358;-70
2022/01/29 11:10:00;;;;;;;;;;;20.90;54.50;;;;;;5060989;28;1559;-72
2022/01/29 11:12:26;;;;;;;;;;;20.90;54.40;;;;;;5073366;28;1366;-72
2022/01/29 11:14:53;;;;;;;;;;;21.00;54.40;;;;;;5072040;28;1949;-72
2022/01/29 11:17:19;;;;;;;;;;;21.00;54.40;;;;;;5072383;28;1403;-69
2022/01/29 11:19:44;;;;;;;;;;;21.00;54.40;;;;;;5072987;28;1400;-72
2022/01/29 11:22:10;;;;;;;;;;;21.00;54.30;;;;;;5070455;28;1690;-72
2022/01/29 11:24:36;;;;;;;;;;;21.00;54.30;;;;;;5071849;28;1739;-71
2022/01/29 11:27:02;;;;;;;;;;;21.00;54.30;;;;;;5072714;28;1691;-73
2022/01/29 11:29:34;;;;;;;;;;;21.00;54.30;;;;;;5071163;28;1477;-72
2022/01/29 11:32:18;;;;;;;;;;;21.00;54.20;;;;;;5072222;28;1522;-72
2022/01/29 11:34:59;;;;;;;;;;;21.00;54.20;;;;;;5072871;28;1957;-71
2022/01/29 11:37:45;;;;;;;;;;;21.10;54.30;;;;;;5057977;28;1679;-72
2022/01/29 11:40:11;;;;;;;;;;;21.10;54.30;;;;;;5070663;28;1677;-72
2022/01/29 11:42:37;;;;;;;;;;;21.10;54.30;;;;;;5071393;28;1393;-72
2022/01/29 11:45:20;;;;;;;;;;;21.10;54.30;;;;;;5072606;28;1462;-73
2022/01/29 11:47:46;;;;;;;;;;;21.10;54.20;;;;;;5072020;28;1149;-72
2022/01/29 11:50:26;;;;;;;;;;;21.10;54.20;;;;;;5071458;28;1725;-72
2022/01/29 11:52:56;;;;;;;;;;;21.00;54.20;;;;;;5071406;28;1459;-72
2022/01/29 11:55:34;;;;;;;;;;;21.10;54.20;;;;;;5054310;28;1957;-72
2022/01/29 11:58:18;;;;;;;;;;;21.10;54.20;;;;;;5071782;28;1667;-72
2022/01/29 12:00:45;;;;;;;;;;;21.10;54.30;;;;;;5071078;28;1389;-72
2022/01/29 12:03:29;;;;;;;;;;;21.10;54.20;;;;;;5071433;28;1424;-72
2022/01/29 12:06:04;;;;;;;;;;;21.10;54.20;;;;;;5072445;28;1378;-72
2022/01/29 12:08:37;;;;;;;;;;;21.10;54.20;;;;;;5071599;28;1142;-72
2022/01/29 12:11:08;;;;;;;;;;;21.10;54.20;;;;;;5072356;28;1341;-71
2022/01/29 12:13:34;;;;;;;;;;;21.10;54.30;;;;;;5072583;28;1432;-71
2022/01/29 12:15:59;;;;;;;;;;;21.00;54.20;;;;;;5072000;28;1943;-72
2022/01/29 12:18:26;;;;;;;;;;;21.00;54.20;;;;;;5071034;28;1113;-71
2022/01/29 12:20:51;;;;;;;;;;;21.10;54.30;;;;;;5070989;28;1447;-72
2022/01/29 12:23:17;;;;;;;;;;;21.00;54.30;;;;;;5069905;28;2362;-71
2022/01/29 12:25:42;;;;;;;;;;;21.00;54.30;;;;;;5070010;28;1076;-71
2022/01/29 12:28:08;;;;;;;;;;;21.00;54.30;;;;;;5069031;28;1316;-71
2022/01/29 12:30:38;;;;;;;;;;;21.00;54.30;;;;;;5057425;28;1311;-71
2022/01/29 12:33:04;;;;;;;;;;;21.00;54.40;;;;;;5073011;28;1062;-71
2022/01/29 12:35:37;;;;;;;;;;;21.00;54.40;;;;;;5074558;28;1959;-72
2022/01/29 12:38:12;;;;;;;;;;;21.00;54.50;;;;;;5075295;28;1124;-70
2022/01/29 12:40:41;;;;;;;;;;;21.00;54.50;;;;;;5074855;28;1277;-73
2022/01/29 12:43:50;;;;;;;;;;;21.00;54.50;;;;;;5055039;28;1438;-71
2022/01/29 12:46:17;;;;;;;;;;;20.90;54.50;;;;;;5046847;28;1415;-72
2022/01/29 12:48:43;;;;;;;;;;;21.00;54.50;;;;;;5073852;28;1291;-71
2022/01/29 12:51:09;;;;;;;;;;;20.90;54.50;;;;;;5075497;28;1184;-71
2022/01/29 12:53:35;;;;;;;;;;;20.90;54.50;;;;;;5054047;28;1216;-71
2022/01/29 12:56:00;;;;;;;;;;;20.90;54.50;;;;;;5067254;28;1953;-72
2022/01/29 12:58:29;;;;;;;;;;;20.90;54.50;;;;;;5074779;28;1330;-72
2022/01/29 13:01:08;;;;;;;;;;;20.90;54.60;;;;;;5074018;28;1260;-73
2022/01/29 13:03:34;;;;;;;;;;;20.90;54.60;;;;;;5063727;28;1063;-72
2022/01/29 13:06:03;;;;;;;;;;;20.90;54.60;;;;;;5069888;28;1789;-72
2022/01/29 13:08:28;;;;;;;;;;;20.90;54.60;;;;;;5057154;28;2143;-71
2022/01/29 13:10:54;;;;;;;;;;;20.90;54.60;;;;;;5066435;28;1295;-71
2022/01/29 13:13:29;;;;;;;;;;;20.90;54.60;;;;;;5075076;28;1124;-72
2022/01/29 13:15:54;;;;;;;;;;;20.90;54.60;;;;;;5073892;28;1898;-71
2022/01/29 13:18:20;;;;;;;;;;;20.90;54.60;;;;;;5073225;28;1280;-71
2022/01/29 13:20:45;;;;;;;;;;;20.90;54.60;;;;;;5074361;28;1387;-73
2022/01/29 13:23:11;;;;;;;;;;;20.90;54.70;;;;;;5073728;28;1259;-72
2022/01/29 13:25:39;;;;;;;;;;;20.90;54.60;;;;;;5073543;28;1388;-71
2022/01/29 13:28:05;;;;;;;;;;;20.80;54.60;;;;;;5074560;28;1263;-72
2022/01/29 13:30:31;;;;;;;;;;;20.80;54.60;;;;;;5075177;28;1396;-71
2022/01/29 13:33:07;;;;;;;;;;;20.80;54.70;;;;;;5074339;28;1368;-71
2022/01/29 13:35:34;;;;;;;;;;;20.80;55.30;;;;;;5073143;28;1906;-72
2022/01/29 13:38:08;;;;;;;;;;;20.80;55.80;;;;;;5071257;28;2207;-73
2022/01/29 13:40:37;;;;;;;;;;;20.90;56.10;;;;;;5073770;28;1346;-71
2022/01/29 13:43:06;;;;;;;;;;;20.90;56.00;;;;;;5064657;28;1110;-71
2022/01/29 13:45:34;;;;;;;;;;;20.90;56.40;;;;;;5073852;28;1102;-72
2022/01/29 13:48:04;;;;;;;;;;;20.90;56.20;;;;;;5071427;28;1287;-71
2022/01/29 13:50:33;;;;;;;;;;;20.90;56.00;;;;;;5050356;28;1370;-72
2022/01/29 13:53:03;;;;;;;;;;;20.80;55.80;;;;;;5073322;28;1269;-71
2022/01/29 13:55:29;;;;;;;;;;;20.80;56.10;;;;;;5074690;28;1959;-73
2022/01/29 13:58:12;;;;;;;;;;;20.80;56.20;;;;;;5072080;28;1203;-73
2022/01/29 14:00:57;;;;;;;;;;;20.80;56.90;;;;;;5073251;28;1378;-70
2022/01/29 14:04:01;;;;;;;;;;;20.80;57.00;;;;;;5074200;28;1086;-72
2022/01/29 14:06:32;;;;;;;;;;;20.80;57.00;;;;;;5018251;28;1449;-72
2022/01/29 14:09:18;;;;;;;;;;;20.80;56.70;;;;;;4995512;28;981;-71
2022/01/29 14:11:53;;;;;;;;;;;20.90;57.40;;;;;;5049011;28;1292;-70
2022/01/29 14:14:18;;;;;;;;;;;21.00;58.30;;;;;;5074385;28;1340;-70
2022/01/29 14:16:43;;;;;;;;;;;21.10;58.60;;;;;;5074396;28;1953;-74
2022/01/29 14:19:16;;;;;;;;;;;21.20;57.50;;;;;;5073201;28;1119;-70
2022/01/29 14:21:42;;;;;;;;;;;21.30;57.30;;;;;;5074347;28;1707;-71
2022/01/29 14:24:07;;;;;;;;;;;21.20;55.80;;;;;;5060648;28;1043;-71
2022/01/29 14:26:33;;;;;;;;;;;21.20;56.20;;;;;;5074577;28;1062;-72
2022/01/29 14:28:58;;;;;;;;;;;21.10;56.10;;;;;;5073763;28;1173;-72
2022/01/29 14:31:24;;;;;;;;;;;21.10;55.90;;;;;;5072725;28;1229;-71
2022/01/29 14:33:49;;;;;;;;;;;21.00;55.90;;;;;;5072647;28;1361;-72
2022/01/29 14:36:15;;;;;;;;;;;21.00;55.90;;;;;;5062258;28;1992;-73
2022/01/29 14:38:40;;;;;;;;;;;20.90;55.80;;;;;;5070381;28;1069;-72
2022/01/29 14:41:06;;;;;;;;;;;20.90;55.90;;;;;;5072451;28;1263;-73
2022/01/29 14:43:33;;;;;;;;;;;20.90;56.00;;;;;;5073752;28;1045;-73